createdAt,value
2018-02-24T00:00:49.143Z,13.53
2018-02-24T00:03:16.663Z,13.40
2018-02-24T00:05:44.201Z,15.17
2018-02-24T00:08:11.734Z,14.40
2018-02-24T00:10:39.279Z,15.20
2018-02-24T00:13:06.791Z,14.40
2018-02-24T00:15:34.316Z,14.37
2018-02-24T00:18:01.836Z,14.83
2018-02-24T00:20:29.371Z,15.73
2018-02-24T00:22:56.956Z,15.03
2018-02-24T00:25:24.504Z,15.77
2018-02-24T00:27:52.038Z,16.47
2018-02-24T00:30:19.570Z,15.80
2018-02-24T00:32:47.086Z,15.80
2018-02-24T00:35:14.649Z,15.93
2018-02-24T00:37:42.186Z,16.00
2018-02-24T00:40:09.712Z,15.63
2018-02-24T00:42:37.339Z,14.93
2018-02-24T00:45:04.853Z,15.63
2018-02-24T00:47:32.382Z,16.50
2018-02-24T00:49:59.909Z,14.73
2018-02-24T00:52:27.448Z,14.90
2018-02-24T00:54:55.021Z,15.50
2018-02-24T00:57:22.548Z,14.97
2018-02-24T00:59:50.076Z,16.07
2018-02-24T01:02:17.589Z,15.93
2018-02-24T01:04:45.110Z,15.13
2018-02-24T01:07:12.731Z,15.87
2018-02-24T01:09:40.290Z,15.17
2018-02-24T01:12:07.851Z,15.13
2018-02-24T01:14:35.410Z,15.57
2018-02-24T01:17:02.941Z,15.33
2018-02-24T01:19:30.470Z,16.03
2018-02-24T01:21:57.981Z,14.33
2018-02-24T01:24:25.520Z,14.70
2018-02-24T01:26:53.046Z,15.10
2018-02-24T01:29:20.657Z,14.53
2018-02-24T01:31:48.172Z,15.60
2018-02-24T01:34:15.691Z,15.00
2018-02-24T01:36:43.209Z,15.57
2018-02-24T01:39:10.800Z,14.67
2018-02-24T01:41:38.314Z,15.13
2018-02-24T01:44:05.833Z,15.03
2018-02-24T01:46:33.378Z,15.03
2018-02-24T01:49:00.906Z,14.70
2018-02-24T01:51:28.428Z,15.23
2018-02-24T01:53:55.948Z,15.70
2018-02-24T01:56:23.468Z,16.17
2018-02-24T01:58:50.984Z,17.27
2018-02-24T02:01:18.509Z,16.10
2018-02-24T02:03:46.028Z,16.93
2018-02-24T02:06:13.565Z,15.63
2018-02-24T02:08:41.080Z,16.20
2018-02-24T02:11:08.657Z,16.33
2018-02-24T02:13:36.178Z,17.33
2018-02-24T02:16:03.804Z,17.37
2018-02-24T02:18:31.321Z,17.10
2018-02-24T02:20:58.881Z,16.80
2018-02-24T02:23:26.482Z,17.10
2018-02-24T02:25:54.010Z,16.77
2018-02-24T02:28:21.536Z,15.67
2018-02-24T02:30:49.054Z,15.97
2018-02-24T02:33:16.599Z,15.43
2018-02-24T02:35:44.126Z,15.47
2018-02-24T02:38:11.648Z,16.17
2018-02-24T02:40:39.177Z,14.60
2018-02-24T02:43:06.704Z,16.00
2018-02-24T02:45:34.227Z,15.97
2018-02-24T02:48:01.760Z,15.47
2018-02-24T02:50:29.273Z,15.70
2018-02-24T02:52:56.790Z,14.43
2018-02-24T02:55:24.365Z,13.87
2018-02-24T02:57:51.984Z,14.00
2018-02-24T03:00:19.580Z,13.47
2018-02-24T03:02:47.119Z,13.53
2018-02-24T03:05:14.640Z,12.93
2018-02-24T03:07:42.155Z,12.40
2018-02-24T03:10:09.673Z,12.80
2018-02-24T03:12:37.197Z,13.30
2018-02-24T03:15:04.727Z,11.57
2018-02-24T03:17:32.247Z,12.37
2018-02-24T03:19:59.774Z,12.40
2018-02-24T03:22:27.300Z,12.80
2018-02-24T03:24:54.825Z,12.23
2018-02-24T03:27:22.359Z,12.40
2018-02-24T03:29:49.896Z,12.37
2018-02-24T03:32:17.546Z,12.03
2018-02-24T03:34:45.078Z,12.90
2018-02-24T03:37:12.598Z,11.97
2018-02-24T03:39:40.124Z,12.47
2018-02-24T03:42:07.653Z,11.53
2018-02-24T03:44:35.180Z,11.37
2018-02-24T03:47:02.707Z,10.90
2018-02-24T03:49:30.237Z,11.70
2018-02-24T03:51:57.822Z,11.20
2018-02-24T03:54:25.386Z,10.87
2018-02-24T03:56:52.906Z,10.83
2018-02-24T03:59:20.433Z,11.43
2018-02-24T04:01:47.954Z,10.73
2018-02-24T04:04:15.622Z,10.10
2018-02-24T04:06:43.141Z,10.53
2018-02-24T04:09:10.673Z,10.83
2018-02-24T04:11:38.192Z,10.37
2018-02-24T04:14:05.712Z,11.10
2018-02-24T04:16:33.313Z,10.50
2018-02-24T04:19:00.842Z,11.17
2018-02-24T04:21:28.404Z,11.47
2018-02-24T04:23:55.938Z,10.70
2018-02-24T04:26:23.552Z,11.73
2018-02-24T04:28:51.073Z,12.20
2018-02-24T04:31:18.605Z,11.43
2018-02-24T04:33:46.131Z,11.37
2018-02-24T04:36:13.673Z,11.83
2018-02-24T04:38:41.194Z,12.67
2018-02-24T04:41:08.823Z,12.33
2018-02-24T04:43:36.373Z,12.80
2018-02-24T04:46:03.892Z,12.63
2018-02-24T04:48:31.427Z,12.83
2018-02-24T04:50:58.944Z,13.80
2018-02-24T04:53:26.462Z,13.83
2018-02-24T04:55:53.978Z,14.03
2018-02-24T04:58:21.501Z,13.13
2018-02-24T05:00:49.084Z,12.83
2018-02-24T05:03:16.601Z,14.37
2018-02-24T05:05:44.219Z,13.03
2018-02-24T05:08:11.766Z,11.93
2018-02-24T05:10:39.289Z,12.53
2018-02-24T05:13:06.823Z,11.90
2018-02-24T05:15:34.344Z,12.27
2018-02-24T05:18:01.870Z,12.63
2018-02-24T05:20:29.389Z,12.27
2018-02-24T05:22:56.909Z,11.30
2018-02-24T05:25:24.430Z,12.70
2018-02-24T05:27:51.948Z,12.40
2018-02-24T05:30:19.470Z,12.70
2018-02-24T05:32:47.065Z,11.27
2018-02-24T05:35:14.629Z,12.40
2018-02-24T05:37:42.150Z,11.90
2018-02-24T05:40:09.682Z,10.53
2018-02-24T05:42:37.206Z,11.53
2018-02-24T05:45:04.860Z,11.17
2018-02-24T05:47:32.421Z,11.53
2018-02-24T05:49:59.950Z,11.67
2018-02-24T05:52:27.469Z,11.70
2018-02-24T05:54:55.100Z,11.47
2018-02-24T05:57:22.660Z,11.60
2018-02-24T05:59:50.196Z,11.90
2018-02-24T06:02:17.794Z,11.40
2018-02-24T06:04:45.335Z,11.53
2018-02-24T06:07:12.913Z,10.93
2018-02-24T06:09:40.460Z,9.83
2018-02-24T06:12:07.977Z,10.80
2018-02-24T06:14:35.508Z,10.13
2018-02-24T06:17:03.029Z,10.73
2018-02-24T06:19:30.540Z,9.77
2018-02-24T06:21:58.093Z,11.17
2018-02-24T06:24:25.613Z,10.17
2018-02-24T06:26:53.155Z,10.03
2018-02-24T06:29:20.950Z,10.20
2018-02-24T06:31:48.476Z,9.20
2018-02-24T06:34:15.998Z,9.03
2018-02-24T06:36:43.519Z,8.60
2018-02-24T06:39:11.060Z,9.03
2018-02-24T06:41:38.653Z,9.57
2018-02-24T06:44:06.171Z,9.53
2018-02-24T06:46:33.698Z,8.30
2018-02-24T06:49:01.216Z,8.53
2018-02-24T06:51:28.729Z,7.80
2018-02-24T06:53:56.346Z,7.17
2018-02-24T06:56:23.862Z,6.93
2018-02-24T06:58:51.425Z,6.20
2018-02-24T07:01:18.959Z,5.30
2018-02-24T07:03:46.484Z,5.40
2018-02-24T07:06:14.027Z,4.67
2018-02-24T07:08:41.547Z,4.20
2018-02-24T07:11:09.055Z,3.80
2018-02-24T07:13:36.577Z,3.90
2018-02-24T07:16:04.123Z,3.13
2018-02-24T07:18:31.646Z,3.90
2018-02-24T07:20:59.155Z,3.10
2018-02-24T07:23:26.672Z,3.47
2018-02-24T07:25:54.216Z,3.23
2018-02-24T07:28:21.730Z,3.20
2018-02-24T07:30:49.252Z,3.40
2018-02-24T07:33:16.775Z,3.17
2018-02-24T07:35:44.326Z,3.40
2018-02-24T07:38:11.836Z,3.40
2018-02-24T07:40:39.348Z,3.40
2018-02-24T07:43:06.860Z,3.00
2018-02-24T07:45:34.484Z,3.07
2018-02-24T07:48:02.000Z,2.90
2018-02-24T07:50:29.514Z,2.93
2018-02-24T07:52:57.104Z,2.77
2018-02-24T07:55:24.601Z,2.80
2018-02-24T07:57:52.136Z,2.80
2018-02-24T08:00:19.744Z,2.70
2018-02-24T08:02:47.253Z,2.47
2018-02-24T08:05:14.765Z,2.67
2018-02-24T08:07:42.321Z,2.03
2018-02-24T08:10:09.828Z,2.70
2018-02-24T08:12:37.341Z,2.60
2018-02-24T08:15:04.851Z,2.00
2018-02-24T08:17:32.371Z,2.27
2018-02-24T08:19:59.893Z,2.87
2018-02-24T08:22:27.410Z,2.20
2018-02-24T08:24:54.930Z,2.20
2018-02-24T08:27:22.441Z,1.90
2018-02-24T08:29:50.063Z,2.00
2018-02-24T08:32:17.625Z,8.87
2018-02-24T08:34:45.147Z,2.10
2018-02-24T08:37:12.644Z,1.70
2018-02-24T08:39:40.175Z,1.97
2018-02-24T08:42:07.687Z,2.37
2018-02-24T08:44:35.202Z,2.00
2018-02-24T08:47:05.666Z,1.70
2018-02-24T08:49:33.217Z,1.73
2018-02-24T08:52:00.738Z,1.67
2018-02-24T08:54:28.347Z,1.30
2018-02-24T08:56:55.870Z,1.77
2018-02-24T08:59:23.379Z,2.77
2018-02-24T09:01:50.974Z,2.27
2018-02-24T09:04:18.521Z,1.60
2018-02-24T09:06:46.052Z,1.83
2018-02-24T09:09:13.573Z,1.93
2018-02-24T09:11:41.091Z,2.30
2018-02-24T09:14:08.642Z,1.60
2018-02-24T09:16:36.216Z,1.90
2018-02-24T09:19:03.779Z,1.80
2018-02-24T09:21:31.316Z,2.10
2018-02-24T09:23:58.840Z,2.73
2018-02-24T09:26:28.152Z,2.13
2018-02-24T09:28:55.682Z,1.80
2018-02-24T09:31:23.209Z,2.27
2018-02-24T09:33:50.707Z,1.97
2018-02-24T09:36:18.218Z,2.27
2018-02-24T09:38:45.732Z,2.10
2018-02-24T09:41:13.267Z,1.80
2018-02-24T09:43:40.787Z,2.37
2018-02-24T09:46:08.564Z,2.10
2018-02-24T09:48:36.087Z,2.90
2018-02-24T09:51:03.616Z,2.60
2018-02-24T09:53:31.159Z,2.30
2018-02-24T09:55:58.674Z,2.40
2018-02-24T09:58:26.246Z,2.30
2018-02-24T10:00:53.833Z,2.10
2018-02-24T10:03:21.415Z,2.00
2018-02-24T10:05:48.979Z,2.00
2018-02-24T10:08:16.534Z,2.17
2018-02-24T10:10:44.050Z,2.30
2018-02-24T10:13:11.561Z,1.93
2018-02-24T10:15:39.064Z,2.73
2018-02-24T10:18:06.576Z,2.80
2018-02-24T10:20:34.087Z,2.73
2018-02-24T10:23:01.624Z,2.37
2018-02-24T10:25:29.157Z,2.30
2018-02-24T10:27:56.677Z,2.50
2018-02-24T10:30:24.182Z,2.23
2018-02-24T10:32:53.842Z,1.97
2018-02-24T10:35:21.422Z,1.93
2018-02-24T10:37:48.933Z,2.17
2018-02-24T10:40:16.467Z,2.00
2018-02-24T10:42:43.973Z,1.60
2018-02-24T10:45:11.488Z,1.90
2018-02-24T10:47:39.014Z,2.20
2018-02-24T10:50:06.546Z,1.50
2018-02-24T10:52:34.072Z,1.77
2018-02-24T10:55:01.594Z,1.80
2018-02-24T10:57:29.167Z,1.70
2018-02-24T10:59:56.651Z,1.83
2018-02-24T11:02:24.166Z,1.97
2018-02-24T11:04:51.685Z,2.00
2018-02-24T11:07:19.200Z,2.00
2018-02-24T11:09:46.718Z,2.23
2018-02-24T11:12:14.229Z,2.30
2018-02-24T11:14:41.746Z,1.90
2018-02-24T11:17:09.276Z,2.50
2018-02-24T11:19:36.793Z,2.50
2018-02-24T11:22:04.309Z,2.40
2018-02-24T11:24:31.830Z,3.00
2018-02-24T11:26:59.340Z,2.33
2018-02-24T11:29:26.850Z,2.90
2018-02-24T11:31:54.362Z,2.60
2018-02-24T11:34:21.866Z,2.00
2018-02-24T11:36:49.392Z,1.83
2018-02-24T11:39:16.921Z,1.63
2018-02-24T11:41:44.462Z,1.53
2018-02-24T11:44:11.981Z,2.67
2018-02-24T11:46:39.501Z,2.40
2018-02-24T11:49:07.007Z,2.50
2018-02-24T11:51:34.526Z,2.63
2018-02-24T11:54:02.054Z,2.40
2018-02-24T11:56:29.573Z,2.50
2018-02-24T11:58:57.077Z,1.80
2018-02-24T12:01:24.589Z,2.40
2018-02-24T12:03:52.102Z,2.40
2018-02-24T12:06:19.614Z,2.50
2018-02-24T12:08:47.129Z,2.50
2018-02-24T12:11:14.641Z,1.97
2018-02-24T12:13:42.156Z,2.77
2018-02-24T12:16:09.697Z,2.77
2018-02-24T12:18:37.235Z,3.10
2018-02-24T12:21:04.744Z,3.20
2018-02-24T12:23:32.273Z,2.63
2018-02-24T12:25:59.789Z,2.97
2018-02-24T12:28:27.305Z,3.50
2018-02-24T12:30:54.834Z,2.03
2018-02-24T12:33:22.360Z,2.40
2018-02-24T12:35:49.885Z,2.10
2018-02-24T12:38:18.117Z,2.93
2018-02-24T12:40:45.622Z,2.60
2018-02-24T12:43:13.142Z,2.40
2018-02-24T12:45:40.645Z,2.67
2018-02-24T12:48:08.158Z,2.43
2018-02-24T12:50:35.680Z,2.80
2018-02-24T12:53:03.194Z,2.67
2018-02-24T12:55:30.705Z,2.50
2018-02-24T12:57:58.221Z,2.73
2018-02-24T13:00:25.726Z,2.90
2018-02-24T13:02:53.252Z,2.37
2018-02-24T13:05:20.767Z,2.27
2018-02-24T13:07:48.278Z,3.10
2018-02-24T13:10:15.805Z,2.60
2018-02-24T13:12:43.315Z,1.90
2018-02-24T13:15:10.821Z,2.20
2018-02-24T13:17:38.345Z,2.30
2018-02-24T13:20:05.860Z,3.00
2018-02-24T13:22:33.377Z,2.37
2018-02-24T13:25:00.893Z,2.60
2018-02-24T13:27:28.410Z,2.70
2018-02-24T13:29:55.921Z,2.50
2018-02-24T13:32:23.470Z,2.30
2018-02-24T13:34:50.957Z,2.40
2018-02-24T13:37:18.481Z,2.77
2018-02-24T13:39:45.994Z,1.83
2018-02-24T13:42:13.500Z,2.20
2018-02-24T13:44:41.023Z,3.00
2018-02-24T13:47:08.538Z,2.70
2018-02-24T13:49:36.056Z,2.67
2018-02-24T13:52:03.568Z,2.37
2018-02-24T13:54:31.074Z,1.73
2018-02-24T13:56:58.594Z,3.47
2018-02-24T13:59:26.093Z,2.97
2018-02-24T14:01:53.594Z,2.57
2018-02-24T14:04:21.114Z,3.70
2018-02-24T14:06:48.621Z,2.70
2018-02-24T14:09:16.127Z,2.90
2018-02-24T14:11:43.642Z,2.53
2018-02-24T14:14:11.156Z,3.13
2018-02-24T14:16:38.663Z,2.83
2018-02-24T14:19:06.170Z,3.53
2018-02-24T14:21:33.673Z,3.43
2018-02-24T14:24:01.209Z,3.73
2018-02-24T14:26:28.718Z,3.73
2018-02-24T14:28:56.226Z,2.80
2018-02-24T14:31:23.738Z,2.60
2018-02-24T14:33:51.253Z,3.57
2018-02-24T14:36:18.779Z,3.07
2018-02-24T14:38:46.294Z,3.33
2018-02-24T14:41:13.808Z,2.70
2018-02-24T14:43:41.328Z,1.93
2018-02-24T14:46:08.828Z,3.23
2018-02-24T14:48:36.331Z,3.03
2018-02-24T14:51:03.852Z,3.33
2018-02-24T14:53:31.361Z,3.07
2018-02-24T14:55:58.869Z,2.27
2018-02-24T14:58:26.369Z,3.70
2018-02-24T15:00:53.883Z,3.40
2018-02-24T15:03:21.398Z,3.40
2018-02-24T15:05:48.906Z,4.43
2018-02-24T15:08:16.461Z,4.10
2018-02-24T15:10:43.951Z,3.13
2018-02-24T15:13:11.476Z,4.20
2018-02-24T15:15:39.005Z,2.93
2018-02-24T15:18:06.534Z,3.10
2018-02-24T15:20:34.058Z,2.37
2018-02-24T15:23:01.572Z,3.57
2018-02-24T15:25:29.082Z,3.30
2018-02-24T15:27:56.619Z,2.93
2018-02-24T15:30:24.129Z,3.20
2018-02-24T15:32:51.645Z,2.93
2018-02-24T15:35:19.158Z,3.30
2018-02-24T15:37:46.672Z,5.00
2018-02-24T15:40:14.187Z,3.90
2018-02-24T15:42:41.707Z,2.90
2018-02-24T15:45:09.256Z,2.80
2018-02-24T15:47:36.783Z,4.03
2018-02-24T15:50:04.333Z,3.77
2018-02-24T15:52:31.899Z,3.30
2018-02-24T15:54:59.479Z,3.53
2018-02-24T15:57:26.995Z,3.67
2018-02-24T15:59:54.509Z,3.23
2018-02-24T16:02:22.097Z,3.77
2018-02-24T16:04:49.596Z,3.03
2018-02-24T16:07:17.116Z,2.83
2018-02-24T16:09:44.643Z,3.23
2018-02-24T16:12:12.145Z,3.47
2018-02-24T16:14:39.663Z,4.10
2018-02-24T16:17:07.177Z,2.67
2018-02-24T16:19:34.704Z,3.87
2018-02-24T16:22:02.254Z,3.60
2018-02-24T16:24:30.005Z,3.87
2018-02-24T16:26:57.546Z,3.70
2018-02-24T16:29:25.094Z,4.00
2018-02-24T16:31:52.610Z,4.70
2018-02-24T16:34:20.122Z,4.00
2018-02-24T16:36:47.673Z,3.60
2018-02-24T16:39:15.187Z,3.73
2018-02-24T16:41:42.713Z,3.50
2018-02-24T16:44:10.231Z,3.00
2018-02-24T16:46:37.769Z,2.93
2018-02-24T16:49:05.292Z,2.80
2018-02-24T16:51:33.144Z,5.27
2018-02-24T16:54:00.711Z,5.03
2018-02-24T16:56:28.233Z,3.20
2018-02-24T16:58:55.742Z,3.63
2018-02-24T17:01:23.262Z,2.83
2018-02-24T17:03:50.782Z,3.50
2018-02-24T17:06:18.295Z,3.00
2018-02-24T17:08:45.820Z,3.63
2018-02-24T17:11:13.374Z,4.30
2018-02-24T17:13:40.893Z,3.83
2018-02-24T17:16:08.409Z,4.00
2018-02-24T17:18:35.955Z,3.90
2018-02-24T17:21:03.517Z,5.17
2018-02-24T17:23:31.023Z,5.30
2018-02-24T17:25:58.542Z,4.50
2018-02-24T17:28:26.067Z,4.30
2018-02-24T17:30:53.580Z,4.03
2018-02-24T17:33:21.110Z,4.87
2018-02-24T17:35:48.631Z,5.63
2018-02-24T17:38:16.151Z,4.20
2018-02-24T17:40:43.688Z,4.53
2018-02-24T17:43:11.219Z,4.20
2018-02-24T17:45:38.741Z,3.40
2018-02-24T17:48:06.268Z,3.87
2018-02-24T17:50:33.788Z,4.40
2018-02-24T17:53:01.321Z,3.10
2018-02-24T17:55:28.846Z,3.80
2018-02-24T17:57:56.352Z,4.47
2018-02-24T18:00:24.053Z,3.40
2018-02-24T18:02:51.694Z,3.63
2018-02-24T18:05:19.219Z,4.80
2018-02-24T18:07:47.539Z,4.30
2018-02-24T18:10:15.069Z,4.10
2018-02-24T18:12:42.614Z,4.30
2018-02-24T18:15:10.135Z,2.77
2018-02-24T18:17:37.666Z,3.07
2018-02-24T18:20:05.188Z,4.20
2018-02-24T18:22:32.717Z,4.07
2018-02-24T18:25:00.245Z,3.40
2018-02-24T18:27:27.774Z,3.43
2018-02-24T18:29:55.292Z,4.43
2018-02-24T18:32:22.825Z,3.93
2018-02-24T18:34:50.352Z,3.37
2018-02-24T18:37:17.879Z,4.10
2018-02-24T18:39:45.392Z,4.30
2018-02-24T18:42:12.911Z,4.10
2018-02-24T18:44:40.432Z,4.60
2018-02-24T18:47:07.973Z,4.37
2018-02-24T18:49:35.493Z,3.90
2018-02-24T18:52:03.024Z,4.20
2018-02-24T18:54:30.554Z,3.80
2018-02-24T18:56:58.078Z,3.60
2018-02-24T18:59:25.605Z,3.67
2018-02-24T19:01:53.126Z,4.03
2018-02-24T19:04:20.658Z,3.90
2018-02-24T19:06:48.180Z,4.03
2018-02-24T19:09:15.709Z,3.93
2018-02-24T19:11:43.221Z,4.30
2018-02-24T19:14:10.922Z,3.73
2018-02-24T19:16:38.448Z,4.37
2018-02-24T19:19:05.961Z,3.37
2018-02-24T19:21:33.472Z,3.10
2018-02-24T19:24:01.021Z,3.90
2018-02-24T19:26:28.799Z,4.47
2018-02-24T19:28:56.356Z,4.00
2018-02-24T19:31:23.883Z,4.03
2018-02-24T19:33:51.650Z,4.40
2018-02-24T19:36:19.172Z,4.00
2018-02-24T19:38:46.738Z,4.10
2018-02-24T19:41:14.370Z,4.70
2018-02-24T19:43:41.894Z,2.93
2018-02-24T19:46:09.454Z,4.40
2018-02-24T19:48:36.969Z,4.23
2018-02-24T19:51:04.491Z,4.87
2018-02-24T19:53:32.054Z,4.60
2018-02-24T19:55:59.604Z,3.43
2018-02-24T19:58:27.124Z,4.40
2018-02-24T20:00:54.657Z,4.20
2018-02-24T20:03:22.173Z,4.93
2018-02-24T20:05:49.733Z,5.07
2018-02-24T20:08:17.290Z,4.90
2018-02-24T20:10:44.994Z,5.10
2018-02-24T20:13:12.521Z,4.47
2018-02-24T20:15:40.057Z,4.50
2018-02-24T20:18:07.586Z,4.17
2018-02-24T20:20:35.107Z,4.87
2018-02-24T20:23:02.812Z,3.70
2018-02-24T20:25:31.085Z,4.97
2018-02-24T20:27:58.609Z,4.13
2018-02-24T20:30:26.121Z,4.60
2018-02-24T20:32:53.670Z,5.87
2018-02-24T20:35:21.183Z,4.70
2018-02-24T20:37:48.694Z,4.97
2018-02-24T20:40:16.205Z,5.20
2018-02-24T20:42:43.713Z,5.07
2018-02-24T20:45:11.241Z,5.10
2018-02-24T20:47:38.765Z,5.80
2018-02-24T20:50:06.282Z,5.20
2018-02-24T20:52:34.137Z,5.43
2018-02-24T20:55:01.845Z,5.10
2018-02-24T20:57:30.438Z,4.57
2018-02-24T20:59:58.113Z,5.10
2018-02-24T21:02:25.665Z,5.03
2018-02-24T21:04:53.182Z,5.30
2018-02-24T21:07:20.807Z,4.77
2018-02-24T21:09:48.317Z,4.63
2018-02-24T21:12:15.835Z,5.27
2018-02-24T21:14:43.364Z,5.23
2018-02-24T21:17:11.078Z,5.47
2018-02-24T21:19:38.658Z,4.70
2018-02-24T21:22:06.186Z,5.10
2018-02-24T21:24:57.314Z,4.90
2018-02-24T21:27:24.859Z,4.90
2018-02-24T21:29:52.414Z,4.10
2018-02-24T21:32:25.627Z,3.37
2018-02-24T21:34:53.906Z,4.10
2018-02-24T21:37:22.343Z,5.17
2018-02-24T21:39:50.010Z,4.73
2018-02-24T21:42:17.632Z,5.10
2018-02-24T21:44:45.275Z,5.20
2018-02-24T21:47:12.902Z,4.80
2018-02-24T21:49:40.431Z,3.50
2018-02-24T21:52:07.944Z,4.53
2018-02-24T21:54:35.461Z,4.50
2018-02-24T21:57:03.004Z,4.40
2018-02-24T21:59:30.529Z,4.90
2018-02-24T22:01:58.057Z,4.80
2018-02-24T22:04:25.586Z,4.50
2018-02-24T22:06:53.141Z,3.90
2018-02-24T22:09:20.756Z,4.80
2018-02-24T22:11:48.269Z,4.30
2018-02-24T22:14:15.809Z,4.10
2018-02-24T22:16:43.356Z,4.60
2018-02-24T22:19:10.878Z,4.23
2018-02-24T22:21:38.406Z,5.07
2018-02-24T22:24:05.920Z,4.30
2018-02-24T22:26:33.448Z,5.23
2018-02-24T22:29:00.965Z,4.70
2018-02-24T22:31:28.513Z,4.33
2018-02-24T22:33:56.029Z,4.47
2018-02-24T22:36:23.761Z,5.03
2018-02-24T22:38:51.282Z,4.80
2018-02-24T22:41:18.796Z,4.53
2018-02-24T22:43:46.322Z,3.40
2018-02-24T22:46:13.845Z,5.07
2018-02-24T22:48:46.987Z,5.07
2018-02-24T22:51:14.527Z,5.62
2018-02-24T22:53:42.069Z,5.37
2018-02-24T22:56:09.586Z,3.40
2018-02-24T22:58:37.106Z,4.77
2018-02-24T23:01:04.655Z,5.30
2018-02-24T23:03:32.178Z,4.83
2018-02-24T23:05:59.706Z,4.77
2018-02-24T23:08:27.236Z,4.50
2018-02-24T23:10:54.756Z,3.67
2018-02-24T23:13:22.273Z,5.20
2018-02-24T23:15:49.812Z,5.33
2018-02-24T23:18:17.437Z,4.73
2018-02-24T23:20:45.041Z,4.47
2018-02-24T23:23:12.553Z,5.33
2018-02-24T23:25:40.078Z,5.27
2018-02-24T23:28:07.621Z,5.27
2018-02-24T23:30:35.138Z,4.83
2018-02-24T23:33:02.674Z,5.87
2018-02-24T23:35:30.189Z,4.60
2018-02-24T23:37:57.713Z,5.63
2018-02-24T23:40:25.238Z,5.03
2018-02-24T23:42:52.766Z,4.50
2018-02-24T23:45:20.326Z,5.07
2018-02-24T23:47:47.837Z,5.03
2018-02-24T23:50:15.422Z,5.33
2018-02-24T23:52:42.942Z,5.67
2018-02-24T23:55:10.462Z,5.80
2018-02-24T23:57:37.983Z,6.43
